sensor_id;sensor_type;location;lat;lon;timestamp;P1;durP1;ratioP1;P2;durP2;ratioP2
5977;SDS011;3015;51.390;12.256;2022-08-19T00:00:06;35.63;;;31.80;;
5977;SDS011;3015;51.390;12.256;2022-08-19T00:02:34;37.00;;;33.40;;
5977;SDS011;3015;51.390;12.256;2022-08-19T00:05:01;34.93;;;31.37;;
5977;SDS011;3015;51.390;12.256;2022-08-19T00:07:28;38.37;;;34.47;;
5977;SDS011;3015;51.390;12.256;2022-08-19T00:09:54;35.90;;;32.27;;
5977;SDS011;3015;51.390;12.256;2022-08-19T00:12:19;33.73;;;30.47;;
5977;SDS011;3015;51.390;12.256;2022-08-19T00:14:45;38.13;;;34.37;;
5977;SDS011;3015;51.390;12.256;2022-08-19T00:17:11;36.83;;;33.03;;
5977;SDS011;3015;51.390;12.256;2022-08-19T00:19:37;35.93;;;32.40;;
5977;SDS011;3015;51.390;12.256;2022-08-19T00:22:04;34.93;;;31.80;;
5977;SDS011;3015;51.390;12.256;2022-08-19T00:24:30;36.97;;;33.37;;
5977;SDS011;3015;51.390;12.256;2022-08-19T00:26:56;35.00;;;31.30;;
5977;SDS011;3015;51.390;12.256;2022-08-19T00:29:24;35.20;;;31.77;;
5977;SDS011;3015;51.390;12.256;2022-08-19T00:31:50;37.33;;;32.83;;
5977;SDS011;3015;51.390;12.256;2022-08-19T00:34:21;35.50;;;31.97;;
5977;SDS011;3015;51.390;12.256;2022-08-19T00:36:48;38.37;;;34.57;;
5977;SDS011;3015;51.390;12.256;2022-08-19T00:39:14;39.87;;;35.70;;
5977;SDS011;3015;51.390;12.256;2022-08-19T00:41:41;37.17;;;33.33;;
5977;SDS011;3015;51.390;12.256;2022-08-19T00:44:13;37.43;;;33.53;;
5977;SDS011;3015;51.390;12.256;2022-08-19T00:46:43;41.90;;;36.03;;
5977;SDS011;3015;51.390;12.256;2022-08-19T00:51:43;40.40;;;35.90;;
5977;SDS011;3015;51.390;12.256;2022-08-19T00:54:11;38.43;;;34.30;;
5977;SDS011;3015;51.390;12.256;2022-08-19T00:56:37;40.07;;;35.80;;
5977;SDS011;3015;51.390;12.256;2022-08-19T00:59:03;38.80;;;34.70;;
5977;SDS011;3015;51.390;12.256;2022-08-19T01:01:35;40.73;;;36.53;;
5977;SDS011;3015;51.390;12.256;2022-08-19T01:04:01;40.40;;;35.20;;
5977;SDS011;3015;51.390;12.256;2022-08-19T01:06:27;36.43;;;32.50;;
5977;SDS011;3015;51.390;12.256;2022-08-19T01:08:56;39.70;;;35.43;;
5977;SDS011;3015;51.390;12.256;2022-08-19T01:11:21;41.80;;;37.40;;
5977;SDS011;3015;51.390;12.256;2022-08-19T01:13:47;39.67;;;35.80;;
5977;SDS011;3015;51.390;12.256;2022-08-19T01:16:14;40.10;;;35.87;;
5977;SDS011;3015;51.390;12.256;2022-08-19T01:18:41;41.70;;;37.47;;
5977;SDS011;3015;51.390;12.256;2022-08-19T01:21:18;39.97;;;35.10;;
5977;SDS011;3015;51.390;12.256;2022-08-19T01:23:49;38.50;;;34.60;;
5977;SDS011;3015;51.390;12.256;2022-08-19T01:26:17;36.37;;;32.77;;
5977;SDS011;3015;51.390;12.256;2022-08-19T01:28:45;45.77;;;36.67;;
5977;SDS011;3015;51.390;12.256;2022-08-19T01:31:14;43.20;;;38.80;;
5977;SDS011;3015;51.390;12.256;2022-08-19T01:33:43;43.47;;;38.17;;
5977;SDS011;3015;51.390;12.256;2022-08-19T01:39:02;42.70;;;37.50;;
5977;SDS011;3015;51.390;12.256;2022-08-19T01:41:30;43.53;;;39.10;;
5977;SDS011;3015;51.390;12.256;2022-08-19T01:43:56;43.93;;;37.87;;
5977;SDS011;3015;51.390;12.256;2022-08-19T01:46:22;48.10;;;42.97;;
5977;SDS011;3015;51.390;12.256;2022-08-19T01:48:47;48.57;;;42.20;;
5977;SDS011;3015;51.390;12.256;2022-08-19T01:51:13;47.53;;;41.07;;
5977;SDS011;3015;51.390;12.256;2022-08-19T01:53:40;45.97;;;40.20;;
5977;SDS011;3015;51.390;12.256;2022-08-19T01:56:06;45.33;;;40.63;;
5977;SDS011;3015;51.390;12.256;2022-08-19T01:58:40;45.57;;;40.87;;
5977;SDS011;3015;51.390;12.256;2022-08-19T02:01:11;42.07;;;37.60;;
5977;SDS011;3015;51.390;12.256;2022-08-19T02:03:37;43.67;;;39.10;;
5977;SDS011;3015;51.390;12.256;2022-08-19T02:06:03;46.53;;;41.70;;
5977;SDS011;3015;51.390;12.256;2022-08-19T02:08:31;47.30;;;41.90;;
5977;SDS011;3015;51.390;12.256;2022-08-19T02:10:59;46.77;;;39.90;;
5977;SDS011;3015;51.390;12.256;2022-08-19T02:13:25;45.87;;;41.03;;
5977;SDS011;3015;51.390;12.256;2022-08-19T02:15:51;44.83;;;40.17;;
5977;SDS011;3015;51.390;12.256;2022-08-19T02:18:17;45.13;;;40.23;;
5977;SDS011;3015;51.390;12.256;2022-08-19T02:20:43;46.43;;;41.30;;
5977;SDS011;3015;51.390;12.256;2022-08-19T02:23:10;45.43;;;40.60;;
5977;SDS011;3015;51.390;12.256;2022-08-19T02:25:37;47.50;;;42.20;;
5977;SDS011;3015;51.390;12.256;2022-08-19T02:28:03;48.50;;;42.40;;
5977;SDS011;3015;51.390;12.256;2022-08-19T02:30:30;45.53;;;40.60;;
5977;SDS011;3015;51.390;12.256;2022-08-19T02:32:55;49.67;;;40.97;;
5977;SDS011;3015;51.390;12.256;2022-08-19T02:35:21;48.23;;;43.13;;
5977;SDS011;3015;51.390;12.256;2022-08-19T02:37:47;50.53;;;42.97;;
5977;SDS011;3015;51.390;12.256;2022-08-19T02:40:32;48.03;;;42.77;;
5977;SDS011;3015;51.390;12.256;2022-08-19T02:42:59;49.63;;;44.23;;
5977;SDS011;3015;51.390;12.256;2022-08-19T02:45:27;46.27;;;41.27;;
5977;SDS011;3015;51.390;12.256;2022-08-19T02:47:56;47.50;;;41.93;;
5977;SDS011;3015;51.390;12.256;2022-08-19T02:50:22;49.00;;;43.47;;
5977;SDS011;3015;51.390;12.256;2022-08-19T02:52:47;48.73;;;43.40;;
5977;SDS011;3015;51.390;12.256;2022-08-19T02:55:13;50.50;;;41.40;;
5977;SDS011;3015;51.390;12.256;2022-08-19T02:57:39;49.27;;;43.73;;
5977;SDS011;3015;51.390;12.256;2022-08-19T03:00:07;47.63;;;42.73;;
5977;SDS011;3015;51.390;12.256;2022-08-19T03:02:37;47.57;;;42.67;;
5977;SDS011;3015;51.390;12.256;2022-08-19T03:05:03;46.70;;;41.67;;
5977;SDS011;3015;51.390;12.256;2022-08-19T03:07:29;50.67;;;44.40;;
5977;SDS011;3015;51.390;12.256;2022-08-19T03:09:55;45.90;;;41.20;;
5977;SDS011;3015;51.390;12.256;2022-08-19T03:12:21;47.47;;;42.47;;
5977;SDS011;3015;51.390;12.256;2022-08-19T03:14:47;49.53;;;44.17;;
5977;SDS011;3015;51.390;12.256;2022-08-19T03:17:12;49.10;;;43.93;;
5977;SDS011;3015;51.390;12.256;2022-08-19T03:19:38;47.93;;;41.87;;
5977;SDS011;3015;51.390;12.256;2022-08-19T03:22:04;46.80;;;41.90;;
5977;SDS011;3015;51.390;12.256;2022-08-19T03:24:30;43.03;;;38.50;;
5977;SDS011;3015;51.390;12.256;2022-08-19T03:26:56;41.17;;;37.27;;
5977;SDS011;3015;51.390;12.256;2022-08-19T03:29:24;40.07;;;36.00;;
5977;SDS011;3015;51.390;12.256;2022-08-19T03:31:53;41.27;;;37.00;;
5977;SDS011;3015;51.390;12.256;2022-08-19T03:34:23;42.30;;;37.73;;
5977;SDS011;3015;51.390;12.256;2022-08-19T03:36:52;45.63;;;41.13;;
5977;SDS011;3015;51.390;12.256;2022-08-19T03:39:19;46.23;;;40.33;;
5977;SDS011;3015;51.390;12.256;2022-08-19T03:41:45;45.03;;;40.53;;
5977;SDS011;3015;51.390;12.256;2022-08-19T03:44:14;42.90;;;38.63;;
5977;SDS011;3015;51.390;12.256;2022-08-19T03:46:50;51.50;;;43.67;;
5977;SDS011;3015;51.390;12.256;2022-08-19T03:49:24;45.03;;;40.40;;
5977;SDS011;3015;51.390;12.256;2022-08-19T03:51:52;45.23;;;40.63;;
5977;SDS011;3015;51.390;12.256;2022-08-19T03:54:19;48.67;;;43.50;;
5977;SDS011;3015;51.390;12.256;2022-08-19T03:56:48;47.37;;;42.33;;
5977;SDS011;3015;51.390;12.256;2022-08-19T03:59:21;49.80;;;43.87;;
5977;SDS011;3015;51.390;12.256;2022-08-19T04:01:54;44.57;;;39.90;;
5977;SDS011;3015;51.390;12.256;2022-08-19T04:04:21;43.90;;;39.20;;
5977;SDS011;3015;51.390;12.256;2022-08-19T04:06:47;47.47;;;42.23;;
5977;SDS011;3015;51.390;12.256;2022-08-19T04:09:14;47.03;;;42.00;;
5977;SDS011;3015;51.390;12.256;2022-08-19T04:11:41;45.23;;;40.43;;
5977;SDS011;3015;51.390;12.256;2022-08-19T04:14:16;45.83;;;40.93;;
5977;SDS011;3015;51.390;12.256;2022-08-19T04:16:43;46.93;;;41.97;;
5977;SDS011;3015;51.390;12.256;2022-08-19T04:19:10;43.80;;;39.40;;
5977;SDS011;3015;51.390;12.256;2022-08-19T04:21:36;44.30;;;39.50;;
5977;SDS011;3015;51.390;12.256;2022-08-19T04:24:02;47.40;;;41.00;;
5977;SDS011;3015;51.390;12.256;2022-08-19T04:26:31;41.83;;;37.83;;
5977;SDS011;3015;51.390;12.256;2022-08-19T04:28:59;43.70;;;39.30;;
5977;SDS011;3015;51.390;12.256;2022-08-19T04:31:27;43.20;;;36.40;;
5977;SDS011;3015;51.390;12.256;2022-08-19T04:33:59;43.73;;;39.40;;
5977;SDS011;3015;51.390;12.256;2022-08-19T04:36:29;42.03;;;37.83;;
5977;SDS011;3015;51.390;12.256;2022-08-19T04:38:57;46.37;;;40.07;;
5977;SDS011;3015;51.390;12.256;2022-08-19T04:41:24;44.80;;;40.40;;
5977;SDS011;3015;51.390;12.256;2022-08-19T04:44:09;45.20;;;40.37;;
5977;SDS011;3015;51.390;12.256;2022-08-19T04:46:35;47.83;;;42.93;;
5977;SDS011;3015;51.390;12.256;2022-08-19T04:49:02;48.37;;;43.10;;
5977;SDS011;3015;51.390;12.256;2022-08-19T04:51:30;49.60;;;44.00;;
5977;SDS011;3015;51.390;12.256;2022-08-19T04:54:01;50.73;;;45.50;;
5977;SDS011;3015;51.390;12.256;2022-08-19T04:56:27;49.10;;;43.97;;
5977;SDS011;3015;51.390;12.256;2022-08-19T04:58:54;52.90;;;47.20;;
5977;SDS011;3015;51.390;12.256;2022-08-19T05:01:23;59.17;;;45.80;;
5977;SDS011;3015;51.390;12.256;2022-08-19T05:03:50;52.93;;;47.23;;
5977;SDS011;3015;51.390;12.256;2022-08-19T05:06:18;54.37;;;47.20;;
5977;SDS011;3015;51.390;12.256;2022-08-19T05:08:45;51.00;;;44.43;;
5977;SDS011;3015;51.390;12.256;2022-08-19T05:11:12;57.20;;;46.00;;
5977;SDS011;3015;51.390;12.256;2022-08-19T05:13:41;55.70;;;47.13;;
5977;SDS011;3015;51.390;12.256;2022-08-19T05:16:09;52.03;;;46.33;;
5977;SDS011;3015;51.390;12.256;2022-08-19T05:18:35;50.77;;;45.47;;
5977;SDS011;3015;51.390;12.256;2022-08-19T05:21:20;52.53;;;46.87;;
5977;SDS011;3015;51.390;12.256;2022-08-19T05:24:05;54.03;;;48.50;;
5977;SDS011;3015;51.390;12.256;2022-08-19T05:26:44;53.87;;;47.87;;
5977;SDS011;3015;51.390;12.256;2022-08-19T05:29:12;53.10;;;47.30;;
5977;SDS011;3015;51.390;12.256;2022-08-19T05:31:39;55.10;;;49.20;;
5977;SDS011;3015;51.390;12.256;2022-08-19T05:34:05;53.67;;;47.90;;
5977;SDS011;3015;51.390;12.256;2022-08-19T05:36:35;56.13;;;49.57;;
5977;SDS011;3015;51.390;12.256;2022-08-19T05:39:06;59.83;;;50.57;;
5977;SDS011;3015;51.390;12.256;2022-08-19T05:41:33;59.63;;;51.47;;
5977;SDS011;3015;51.390;12.256;2022-08-19T05:44:03;58.93;;;51.93;;
5977;SDS011;3015;51.390;12.256;2022-08-19T05:46:34;57.50;;;51.00;;
5977;SDS011;3015;51.390;12.256;2022-08-19T05:49:02;57.70;;;50.30;;
5977;SDS011;3015;51.390;12.256;2022-08-19T05:51:29;56.57;;;50.50;;
5977;SDS011;3015;51.390;12.256;2022-08-19T05:53:54;56.30;;;49.90;;
5977;SDS011;3015;51.390;12.256;2022-08-19T05:56:20;56.33;;;49.27;;
5977;SDS011;3015;51.390;12.256;2022-08-19T05:58:46;59.27;;;52.80;;
5977;SDS011;3015;51.390;12.256;2022-08-19T06:01:14;62.37;;;50.87;;
5977;SDS011;3015;51.390;12.256;2022-08-19T06:03:41;59.00;;;50.20;;
5977;SDS011;3015;51.390;12.256;2022-08-19T06:06:08;55.73;;;49.73;;
5977;SDS011;3015;51.390;12.256;2022-08-19T06:08:36;61.03;;;51.33;;
5977;SDS011;3015;51.390;12.256;2022-08-19T06:11:13;58.03;;;51.40;;
5977;SDS011;3015;51.390;12.256;2022-08-19T06:13:46;57.77;;;49.00;;
5977;SDS011;3015;51.390;12.256;2022-08-19T06:16:16;56.20;;;47.90;;
5977;SDS011;3015;51.390;12.256;2022-08-19T06:18:52;58.50;;;50.13;;
5977;SDS011;3015;51.390;12.256;2022-08-19T06:21:21;62.43;;;50.60;;
5977;SDS011;3015;51.390;12.256;2022-08-19T06:23:48;57.10;;;49.80;;
5977;SDS011;3015;51.390;12.256;2022-08-19T06:26:16;60.03;;;50.67;;
5977;SDS011;3015;51.390;12.256;2022-08-19T06:28:43;58.43;;;50.10;;
5977;SDS011;3015;51.390;12.256;2022-08-19T06:31:19;55.87;;;45.63;;
5977;SDS011;3015;51.390;12.256;2022-08-19T06:33:47;55.37;;;46.63;;
5977;SDS011;3015;51.390;12.256;2022-08-19T06:38:47;56.17;;;47.37;;
5977;SDS011;3015;51.390;12.256;2022-08-19T06:41:12;59.53;;;47.00;;
5977;SDS011;3015;51.390;12.256;2022-08-19T06:43:38;49.87;;;42.30;;
5977;SDS011;3015;51.390;12.256;2022-08-19T06:46:08;52.80;;;46.23;;
5977;SDS011;3015;51.390;12.256;2022-08-19T06:48:36;54.50;;;45.60;;
5977;SDS011;3015;51.390;12.256;2022-08-19T06:51:02;53.27;;;44.87;;
5977;SDS011;3015;51.390;12.256;2022-08-19T06:53:28;47.33;;;42.13;;
5977;SDS011;3015;51.390;12.256;2022-08-19T06:55:54;50.43;;;41.40;;
5977;SDS011;3015;51.390;12.256;2022-08-19T06:58:25;50.70;;;43.20;;
5977;SDS011;3015;51.390;12.256;2022-08-19T07:00:50;44.73;;;39.23;;
5977;SDS011;3015;51.390;12.256;2022-08-19T07:03:16;44.50;;;39.67;;
5977;SDS011;3015;51.390;12.256;2022-08-19T07:05:42;47.10;;;42.10;;
5977;SDS011;3015;51.390;12.256;2022-08-19T07:08:08;51.90;;;42.27;;
5977;SDS011;3015;51.390;12.256;2022-08-19T07:10:34;48.00;;;42.57;;
5977;SDS011;3015;51.390;12.256;2022-08-19T07:13:01;47.47;;;42.20;;
5977;SDS011;3015;51.390;12.256;2022-08-19T07:15:28;45.27;;;40.57;;
5977;SDS011;3015;51.390;12.256;2022-08-19T07:17:55;45.30;;;40.50;;
5977;SDS011;3015;51.390;12.256;2022-08-19T07:20:21;42.03;;;37.53;;
5977;SDS011;3015;51.390;12.256;2022-08-19T07:22:46;45.13;;;40.37;;
5977;SDS011;3015;51.390;12.256;2022-08-19T07:25:13;42.73;;;37.27;;
5977;SDS011;3015;51.390;12.256;2022-08-19T07:27:39;41.63;;;37.43;;
5977;SDS011;3015;51.390;12.256;2022-08-19T07:30:04;43.37;;;38.47;;
5977;SDS011;3015;51.390;12.256;2022-08-19T07:32:31;39.77;;;35.77;;
5977;SDS011;3015;51.390;12.256;2022-08-19T07:34:57;40.43;;;36.43;;
5977;SDS011;3015;51.390;12.256;2022-08-19T07:37:25;37.97;;;34.17;;
5977;SDS011;3015;51.390;12.256;2022-08-19T07:39:53;42.70;;;38.10;;
5977;SDS011;3015;51.390;12.256;2022-08-19T07:42:19;37.77;;;33.67;;
5977;SDS011;3015;51.390;12.256;2022-08-19T07:44:46;39.30;;;35.10;;
5977;SDS011;3015;51.390;12.256;2022-08-19T07:47:12;39.60;;;33.50;;
5977;SDS011;3015;51.390;12.256;2022-08-19T07:49:40;36.23;;;32.50;;
5977;SDS011;3015;51.390;12.256;2022-08-19T07:52:08;38.73;;;34.50;;
5977;SDS011;3015;51.390;12.256;2022-08-19T07:54:35;37.53;;;33.70;;
5977;SDS011;3015;51.390;12.256;2022-08-19T07:57:03;39.20;;;35.10;;
5977;SDS011;3015;51.390;12.256;2022-08-19T07:59:29;38.57;;;34.67;;
5977;SDS011;3015;51.390;12.256;2022-08-19T08:01:55;36.53;;;33.13;;
5977;SDS011;3015;51.390;12.256;2022-08-19T08:04:21;35.63;;;32.00;;
5977;SDS011;3015;51.390;12.256;2022-08-19T08:07:06;37.13;;;33.10;;
5977;SDS011;3015;51.390;12.256;2022-08-19T08:09:52;34.80;;;31.20;;
5977;SDS011;3015;51.390;12.256;2022-08-19T08:12:28;33.57;;;30.07;;
5977;SDS011;3015;51.390;12.256;2022-08-19T08:14:58;33.93;;;30.60;;
5977;SDS011;3015;51.390;12.256;2022-08-19T08:17:27;34.73;;;30.87;;
5977;SDS011;3015;51.390;12.256;2022-08-19T08:19:54;37.63;;;33.93;;
5977;SDS011;3015;51.390;12.256;2022-08-19T08:22:21;35.43;;;31.80;;
5977;SDS011;3015;51.390;12.256;2022-08-19T08:25:07;38.10;;;33.57;;
5977;SDS011;3015;51.390;12.256;2022-08-19T08:27:36;35.47;;;31.97;;
5977;SDS011;3015;51.390;12.256;2022-08-19T08:30:05;34.17;;;30.67;;
5977;SDS011;3015;51.390;12.256;2022-08-19T08:32:34;36.43;;;32.70;;
5977;SDS011;3015;51.390;12.256;2022-08-19T08:35:06;37.67;;;33.83;;
5977;SDS011;3015;51.390;12.256;2022-08-19T08:37:34;34.10;;;30.70;;
5977;SDS011;3015;51.390;12.256;2022-08-19T08:40:05;34.53;;;31.30;;
5977;SDS011;3015;51.390;12.256;2022-08-19T08:42:49;34.67;;;31.10;;
5977;SDS011;3015;51.390;12.256;2022-08-19T08:45:23;33.10;;;29.90;;
5977;SDS011;3015;51.390;12.256;2022-08-19T08:47:50;35.83;;;29.77;;
5977;SDS011;3015;51.390;12.256;2022-08-19T08:50:20;33.03;;;29.43;;
5977;SDS011;3015;51.390;12.256;2022-08-19T08:52:50;32.20;;;28.87;;
5977;SDS011;3015;51.390;12.256;2022-08-19T08:55:22;33.67;;;30.13;;
5977;SDS011;3015;51.390;12.256;2022-08-19T08:57:52;32.43;;;29.13;;
5977;SDS011;3015;51.390;12.256;2022-08-19T09:02:54;35.50;;;31.83;;
5977;SDS011;3015;51.390;12.256;2022-08-19T09:05:22;32.43;;;29.13;;
5977;SDS011;3015;51.390;12.256;2022-08-19T09:08:02;35.40;;;31.77;;
5977;SDS011;3015;51.390;12.256;2022-08-19T09:15:55;32.23;;;28.90;;
5977;SDS011;3015;51.390;12.256;2022-08-19T09:18:47;30.47;;;27.33;;
5977;SDS011;3015;51.390;12.256;2022-08-19T09:21:19;30.93;;;27.67;;
5977;SDS011;3015;51.390;12.256;2022-08-19T09:23:47;30.23;;;27.17;;
5977;SDS011;3015;51.390;12.256;2022-08-19T09:26:15;31.20;;;27.60;;
5977;SDS011;3015;51.390;12.256;2022-08-19T09:28:45;30.60;;;27.23;;
5977;SDS011;3015;51.390;12.256;2022-08-19T09:31:13;30.03;;;26.50;;
5977;SDS011;3015;51.390;12.256;2022-08-19T09:33:40;29.37;;;26.40;;
5977;SDS011;3015;51.390;12.256;2022-08-19T09:36:09;31.90;;;28.43;;
5977;SDS011;3015;51.390;12.256;2022-08-19T09:38:37;28.60;;;25.87;;
5977;SDS011;3015;51.390;12.256;2022-08-19T09:41:08;28.80;;;25.90;;
5977;SDS011;3015;51.390;12.256;2022-08-19T09:43:39;27.43;;;24.63;;
5977;SDS011;3015;51.390;12.256;2022-08-19T09:46:06;29.33;;;26.37;;
5977;SDS011;3015;51.390;12.256;2022-08-19T09:48:34;26.37;;;23.73;;
5977;SDS011;3015;51.390;12.256;2022-08-19T09:51:10;26.60;;;23.90;;
5977;SDS011;3015;51.390;12.256;2022-08-19T09:53:40;30.93;;;25.27;;
5977;SDS011;3015;51.390;12.256;2022-08-19T09:56:07;28.50;;;25.53;;
5977;SDS011;3015;51.390;12.256;2022-08-19T09:58:34;30.70;;;25.70;;
5977;SDS011;3015;51.390;12.256;2022-08-19T10:01:01;25.97;;;23.27;;
5977;SDS011;3015;51.390;12.256;2022-08-19T10:03:28;25.70;;;23.37;;
5977;SDS011;3015;51.390;12.256;2022-08-19T10:05:55;25.23;;;22.73;;
5977;SDS011;3015;51.390;12.256;2022-08-19T10:08:33;26.07;;;23.63;;
5977;SDS011;3015;51.390;12.256;2022-08-19T10:11:01;24.47;;;21.87;;
5977;SDS011;3015;51.390;12.256;2022-08-19T10:13:28;23.93;;;21.60;;
5977;SDS011;3015;51.390;12.256;2022-08-19T10:16:03;23.80;;;21.50;;
5977;SDS011;3015;51.390;12.256;2022-08-19T10:18:31;24.10;;;21.63;;
5977;SDS011;3015;51.390;12.256;2022-08-19T10:21:09;21.93;;;19.93;;
5977;SDS011;3015;51.390;12.256;2022-08-19T10:23:37;20.77;;;18.90;;
5977;SDS011;3015;51.390;12.256;2022-08-19T10:26:05;21.60;;;19.50;;
5977;SDS011;3015;51.390;12.256;2022-08-19T10:28:32;26.13;;;20.97;;
5977;SDS011;3015;51.390;12.256;2022-08-19T10:31:02;22.87;;;20.77;;
5977;SDS011;3015;51.390;12.256;2022-08-19T10:33:30;21.00;;;19.10;;
5977;SDS011;3015;51.390;12.256;2022-08-19T10:35:59;20.83;;;18.93;;
5977;SDS011;3015;51.390;12.256;2022-08-19T10:38:33;19.37;;;17.67;;
5977;SDS011;3015;51.390;12.256;2022-08-19T10:41:09;19.20;;;17.20;;
5977;SDS011;3015;51.390;12.256;2022-08-19T10:43:38;18.53;;;16.63;;
5977;SDS011;3015;51.390;12.256;2022-08-19T10:46:06;19.83;;;18.03;;
5977;SDS011;3015;51.390;12.256;2022-08-19T10:48:35;20.00;;;18.23;;
5977;SDS011;3015;51.390;12.256;2022-08-19T10:51:02;18.33;;;16.40;;
5977;SDS011;3015;51.390;12.256;2022-08-19T10:53:47;18.73;;;16.90;;
5977;SDS011;3015;51.390;12.256;2022-08-19T10:56:13;18.77;;;16.97;;
5977;SDS011;3015;51.390;12.256;2022-08-19T10:58:57;17.07;;;15.57;;
5977;SDS011;3015;51.390;12.256;2022-08-19T11:01:23;15.70;;;14.43;;
5977;SDS011;3015;51.390;12.256;2022-08-19T11:03:50;18.50;;;14.37;;
5977;SDS011;3015;51.390;12.256;2022-08-19T11:06:16;15.20;;;13.97;;
5977;SDS011;3015;51.390;12.256;2022-08-19T11:08:41;15.50;;;13.87;;
5977;SDS011;3015;51.390;12.256;2022-08-19T11:11:10;15.23;;;13.90;;
5977;SDS011;3015;51.390;12.256;2022-08-19T11:13:38;14.23;;;12.70;;
5977;SDS011;3015;51.390;12.256;2022-08-19T11:16:14;14.00;;;12.57;;
5977;SDS011;3015;51.390;12.256;2022-08-19T11:18:44;13.37;;;12.03;;
5977;SDS011;3015;51.390;12.256;2022-08-19T11:21:13;14.93;;;13.63;;
5977;SDS011;3015;51.390;12.256;2022-08-19T11:23:42;15.40;;;14.20;;
5977;SDS011;3015;51.390;12.256;2022-08-19T11:26:08;16.40;;;14.80;;
5977;SDS011;3015;51.390;12.256;2022-08-19T11:28:34;15.67;;;14.37;;
5977;SDS011;3015;51.390;12.256;2022-08-19T11:31:00;16.07;;;14.40;;
5977;SDS011;3015;51.390;12.256;2022-08-19T11:33:28;15.67;;;14.37;;
5977;SDS011;3015;51.390;12.256;2022-08-19T11:35:56;17.10;;;15.13;;
5977;SDS011;3015;51.390;12.256;2022-08-19T11:38:24;14.90;;;13.63;;
5977;SDS011;3015;51.390;12.256;2022-08-19T11:41:00;17.30;;;15.03;;
5977;SDS011;3015;51.390;12.256;2022-08-19T11:43:28;16.60;;;15.17;;
5977;SDS011;3015;51.390;12.256;2022-08-19T11:45:54;16.60;;;14.90;;
5977;SDS011;3015;51.390;12.256;2022-08-19T11:48:21;15.13;;;13.73;;
5977;SDS011;3015;51.390;12.256;2022-08-19T11:50:51;15.10;;;13.90;;
5977;SDS011;3015;51.390;12.256;2022-08-19T11:53:18;14.73;;;13.50;;
5977;SDS011;3015;51.390;12.256;2022-08-19T11:55:45;15.30;;;14.00;;
5977;SDS011;3015;51.390;12.256;2022-08-19T11:58:12;14.47;;;13.00;;
5977;SDS011;3015;51.390;12.256;2022-08-19T12:00:39;15.03;;;13.73;;
5977;SDS011;3015;51.390;12.256;2022-08-19T12:03:05;16.90;;;14.77;;
5977;SDS011;3015;51.390;12.256;2022-08-19T12:05:31;14.70;;;13.43;;
5977;SDS011;3015;51.390;12.256;2022-08-19T12:07:57;13.87;;;12.53;;
5977;SDS011;3015;51.390;12.256;2022-08-19T12:10:22;17.77;;;16.20;;
5977;SDS011;3015;51.390;12.256;2022-08-19T12:12:48;15.87;;;14.27;;
5977;SDS011;3015;51.390;12.256;2022-08-19T12:15:14;16.40;;;14.77;;
5977;SDS011;3015;51.390;12.256;2022-08-19T12:17:40;16.80;;;15.40;;
5977;SDS011;3015;51.390;12.256;2022-08-19T12:20:07;14.77;;;13.30;;
5977;SDS011;3015;51.390;12.256;2022-08-19T12:22:35;15.57;;;14.07;;
5977;SDS011;3015;51.390;12.256;2022-08-19T12:25:02;15.67;;;14.37;;
5977;SDS011;3015;51.390;12.256;2022-08-19T12:27:29;14.93;;;13.63;;
5977;SDS011;3015;51.390;12.256;2022-08-19T12:29:55;15.73;;;14.43;;
5977;SDS011;3015;51.390;12.256;2022-08-19T12:32:21;13.77;;;12.57;;
5977;SDS011;3015;51.390;12.256;2022-08-19T12:34:47;15.47;;;14.17;;
5977;SDS011;3015;51.390;12.256;2022-08-19T12:37:13;16.00;;;14.67;;
5977;SDS011;3015;51.390;12.256;2022-08-19T12:39:40;16.07;;;14.87;;
5977;SDS011;3015;51.390;12.256;2022-08-19T12:42:09;15.10;;;13.80;;
5977;SDS011;3015;51.390;12.256;2022-08-19T12:44:37;15.63;;;14.13;;
5977;SDS011;3015;51.390;12.256;2022-08-19T12:47:04;14.10;;;12.63;;
5977;SDS011;3015;51.390;12.256;2022-08-19T12:49:31;14.90;;;13.67;;
5977;SDS011;3015;51.390;12.256;2022-08-19T12:51:59;15.83;;;14.27;;
5977;SDS011;3015;51.390;12.256;2022-08-19T12:54:28;17.87;;;16.30;;
5977;SDS011;3015;51.390;12.256;2022-08-19T12:56:55;16.40;;;15.10;;
5977;SDS011;3015;51.390;12.256;2022-08-19T12:59:21;16.37;;;14.87;;
5977;SDS011;3015;51.390;12.256;2022-08-19T13:01:47;17.33;;;15.67;;
5977;SDS011;3015;51.390;12.256;2022-08-19T13:04:13;16.83;;;15.50;;
5977;SDS011;3015;51.390;12.256;2022-08-19T13:06:39;15.03;;;13.90;;
5977;SDS011;3015;51.390;12.256;2022-08-19T13:09:04;15.13;;;14.03;;
5977;SDS011;3015;51.390;12.256;2022-08-19T13:11:30;15.77;;;14.47;;
5977;SDS011;3015;51.390;12.256;2022-08-19T13:13:58;15.90;;;14.50;;
5977;SDS011;3015;51.390;12.256;2022-08-19T13:16:25;15.93;;;14.60;;
5977;SDS011;3015;51.390;12.256;2022-08-19T13:18:53;15.27;;;13.83;;
5977;SDS011;3015;51.390;12.256;2022-08-19T13:21:20;14.93;;;13.67;;
5977;SDS011;3015;51.390;12.256;2022-08-19T13:23:48;15.60;;;14.30;;
5977;SDS011;3015;51.390;12.256;2022-08-19T13:26:14;15.03;;;13.83;;
5977;SDS011;3015;51.390;12.256;2022-08-19T13:28:40;15.33;;;14.20;;
5977;SDS011;3015;51.390;12.256;2022-08-19T13:31:25;14.27;;;13.07;;
5977;SDS011;3015;51.390;12.256;2022-08-19T13:34:11;15.30;;;14.00;;
5977;SDS011;3015;51.390;12.256;2022-08-19T13:36:37;17.53;;;15.97;;
5977;SDS011;3015;51.390;12.256;2022-08-19T13:39:04;14.67;;;13.47;;
5977;SDS011;3015;51.390;12.256;2022-08-19T13:41:32;14.67;;;13.43;;
5977;SDS011;3015;51.390;12.256;2022-08-19T13:43:58;13.50;;;12.30;;
5977;SDS011;3015;51.390;12.256;2022-08-19T13:46:24;15.57;;;14.27;;
5977;SDS011;3015;51.390;12.256;2022-08-19T13:48:49;15.30;;;14.10;;
5977;SDS011;3015;51.390;12.256;2022-08-19T13:51:16;14.27;;;12.97;;
5977;SDS011;3015;51.390;12.256;2022-08-19T13:53:42;14.17;;;12.97;;
5977;SDS011;3015;51.390;12.256;2022-08-19T13:56:09;13.90;;;12.57;;
5977;SDS011;3015;51.390;12.256;2022-08-19T13:58:37;14.10;;;12.80;;
5977;SDS011;3015;51.390;12.256;2022-08-19T14:01:03;14.90;;;13.70;;
5977;SDS011;3015;51.390;12.256;2022-08-19T14:03:30;13.60;;;12.50;;
5977;SDS011;3015;51.390;12.256;2022-08-19T14:05:56;14.50;;;13.03;;
5977;SDS011;3015;51.390;12.256;2022-08-19T14:08:22;13.60;;;12.50;;
5977;SDS011;3015;51.390;12.256;2022-08-19T14:10:48;14.83;;;13.53;;
5977;SDS011;3015;51.390;12.256;2022-08-19T14:13:15;14.00;;;12.80;;
5977;SDS011;3015;51.390;12.256;2022-08-19T14:15:43;12.50;;;11.50;;
5977;SDS011;3015;51.390;12.256;2022-08-19T14:18:09;14.20;;;12.90;;
5977;SDS011;3015;51.390;12.256;2022-08-19T14:20:35;13.37;;;12.27;;
5977;SDS011;3015;51.390;12.256;2022-08-19T14:23:01;12.73;;;11.73;;
5977;SDS011;3015;51.390;12.256;2022-08-19T14:25:28;14.17;;;12.80;;
5977;SDS011;3015;51.390;12.256;2022-08-19T14:27:55;13.00;;;11.97;;
5977;SDS011;3015;51.390;12.256;2022-08-19T14:30:26;13.70;;;12.60;;
5977;SDS011;3015;51.390;12.256;2022-08-19T14:32:54;14.20;;;12.97;;
5977;SDS011;3015;51.390;12.256;2022-08-19T14:35:21;12.50;;;11.40;;
5977;SDS011;3015;51.390;12.256;2022-08-19T14:37:48;12.07;;;11.07;;
5977;SDS011;3015;51.390;12.256;2022-08-19T14:40:15;13.20;;;12.00;;
5977;SDS011;3015;51.390;12.256;2022-08-19T14:42:45;13.40;;;12.33;;
5977;SDS011;3015;51.390;12.256;2022-08-19T14:45:11;12.13;;;11.13;;
5977;SDS011;3015;51.390;12.256;2022-08-19T14:47:37;12.73;;;11.47;;
5977;SDS011;3015;51.390;12.256;2022-08-19T14:50:04;10.87;;;10.07;;
5977;SDS011;3015;51.390;12.256;2022-08-19T14:52:33;14.07;;;12.80;;
5977;SDS011;3015;51.390;12.256;2022-08-19T14:54:58;16.23;;;14.73;;